sensor_id;sensor_type;location;lat;lon;timestamp;P1;durP1;ratioP1;P2;durP2;ratioP2
13048;SDS011;6591;51.446;5.404;2023-02-20T00:01:00;10.93;;;8.03;;
13048;SDS011;6591;51.446;5.404;2023-02-20T00:03:27;9.77;;;7.90;;
13048;SDS011;6591;51.446;5.404;2023-02-20T00:05:55;10.27;;;7.23;;
13048;SDS011;6591;51.446;5.404;2023-02-20T00:08:22;10.33;;;7.97;;
13048;SDS011;6591;51.446;5.404;2023-02-20T00:10:49;10.10;;;8.10;;
13048;SDS011;6591;51.446;5.404;2023-02-20T00:13:16;10.00;;;7.13;;
13048;SDS011;6591;51.446;5.404;2023-02-20T00:15:43;9.37;;;7.40;;
13048;SDS011;6591;51.446;5.404;2023-02-20T00:18:10;12.23;;;7.80;;
13048;SDS011;6591;51.446;5.404;2023-02-20T00:20:38;8.97;;;7.43;;
13048;SDS011;6591;51.446;5.404;2023-02-20T00:23:05;8.83;;;7.40;;
13048;SDS011;6591;51.446;5.404;2023-02-20T00:25:32;9.90;;;7.63;;
13048;SDS011;6591;51.446;5.404;2023-02-20T00:27:59;11.30;;;7.97;;
13048;SDS011;6591;51.446;5.404;2023-02-20T00:30:26;9.73;;;7.73;;
13048;SDS011;6591;51.446;5.404;2023-02-20T00:32:54;10.93;;;7.37;;
13048;SDS011;6591;51.446;5.404;2023-02-20T00:35:23;9.97;;;7.90;;
13048;SDS011;6591;51.446;5.404;2023-02-20T00:37:52;10.70;;;7.73;;
13048;SDS011;6591;51.446;5.404;2023-02-20T00:40:21;9.03;;;7.77;;
13048;SDS011;6591;51.446;5.404;2023-02-20T00:42:50;12.20;;;8.20;;
13048;SDS011;6591;51.446;5.404;2023-02-20T00:45:17;9.60;;;7.73;;
13048;SDS011;6591;51.446;5.404;2023-02-20T00:47:45;11.33;;;8.13;;
13048;SDS011;6591;51.446;5.404;2023-02-20T00:50:13;10.37;;;8.23;;
13048;SDS011;6591;51.446;5.404;2023-02-20T00:52:43;10.37;;;7.90;;
13048;SDS011;6591;51.446;5.404;2023-02-20T00:55:11;10.50;;;7.83;;
13048;SDS011;6591;51.446;5.404;2023-02-20T00:57:38;11.80;;;8.17;;
13048;SDS011;6591;51.446;5.404;2023-02-20T01:00:06;10.47;;;7.67;;
13048;SDS011;6591;51.446;5.404;2023-02-20T01:02:42;14.23;;;8.87;;
13048;SDS011;6591;51.446;5.404;2023-02-20T01:05:09;11.30;;;8.20;;
13048;SDS011;6591;51.446;5.404;2023-02-20T01:07:36;13.00;;;8.60;;
13048;SDS011;6591;51.446;5.404;2023-02-20T01:10:06;11.87;;;8.27;;
13048;SDS011;6591;51.446;5.404;2023-02-20T01:12:34;14.07;;;9.07;;
13048;SDS011;6591;51.446;5.404;2023-02-20T01:15:02;11.50;;;8.23;;
13048;SDS011;6591;51.446;5.404;2023-02-20T01:17:31;11.97;;;8.87;;
13048;SDS011;6591;51.446;5.404;2023-02-20T01:19:58;11.07;;;8.03;;
13048;SDS011;6591;51.446;5.404;2023-02-20T01:22:25;11.77;;;8.50;;
13048;SDS011;6591;51.446;5.404;2023-02-20T01:24:52;10.73;;;8.20;;
13048;SDS011;6591;51.446;5.404;2023-02-20T01:27:19;14.37;;;8.50;;
13048;SDS011;6591;51.446;5.404;2023-02-20T01:29:46;12.63;;;8.83;;
13048;SDS011;6591;51.446;5.404;2023-02-20T01:32:13;12.30;;;8.97;;
13048;SDS011;6591;51.446;5.404;2023-02-20T01:34:41;12.90;;;7.93;;
13048;SDS011;6591;51.446;5.404;2023-02-20T01:37:13;11.77;;;7.80;;
13048;SDS011;6591;51.446;5.404;2023-02-20T01:39:40;11.23;;;8.47;;
13048;SDS011;6591;51.446;5.404;2023-02-20T01:42:10;13.67;;;9.27;;
13048;SDS011;6591;51.446;5.404;2023-02-20T01:44:44;10.87;;;8.00;;
13048;SDS011;6591;51.446;5.404;2023-02-20T01:47:16;10.87;;;8.53;;
13048;SDS011;6591;51.446;5.404;2023-02-20T01:49:51;13.63;;;8.60;;
13048;SDS011;6591;51.446;5.404;2023-02-20T01:52:30;12.90;;;8.80;;
13048;SDS011;6591;51.446;5.404;2023-02-20T01:55:02;13.07;;;8.50;;
13048;SDS011;6591;51.446;5.404;2023-02-20T01:57:40;12.00;;;8.50;;
13048;SDS011;6591;51.446;5.404;2023-02-20T02:00:16;9.80;;;7.33;;
13048;SDS011;6591;51.446;5.404;2023-02-20T02:02:56;11.17;;;8.33;;
13048;SDS011;6591;51.446;5.404;2023-02-20T02:05:31;12.57;;;8.73;;
13048;SDS011;6591;51.446;5.404;2023-02-20T02:08:03;13.60;;;8.87;;
13048;SDS011;6591;51.446;5.404;2023-02-20T02:10:52;11.47;;;8.60;;
13048;SDS011;6591;51.446;5.404;2023-02-20T02:13:33;15.07;;;9.50;;
13048;SDS011;6591;51.446;5.404;2023-02-20T02:16:10;15.90;;;9.37;;
13048;SDS011;6591;51.446;5.404;2023-02-20T02:21:45;12.83;;;9.50;;
13048;SDS011;6591;51.446;5.404;2023-02-20T02:37:01;15.10;;;11.03;;
13048;SDS011;6591;51.446;5.404;2023-02-20T02:48:30;19.10;;;12.10;;
13048;SDS011;6591;51.446;5.404;2023-02-20T02:51:09;19.20;;;11.97;;
13048;SDS011;6591;51.446;5.404;2023-02-20T02:56:41;20.93;;;13.73;;
13048;SDS011;6591;51.446;5.404;2023-02-20T02:59:13;22.70;;;13.23;;
13048;SDS011;6591;51.446;5.404;2023-02-20T03:01:59;17.27;;;12.97;;
13048;SDS011;6591;51.446;5.404;2023-02-20T03:04:34;16.17;;;12.13;;
13048;SDS011;6591;51.446;5.404;2023-02-20T03:07:06;19.30;;;12.60;;
13048;SDS011;6591;51.446;5.404;2023-02-20T03:09:49;17.97;;;11.90;;
13048;SDS011;6591;51.446;5.404;2023-02-20T03:12:23;18.37;;;12.87;;
13048;SDS011;6591;51.446;5.404;2023-02-20T03:14:55;19.40;;;13.73;;
13048;SDS011;6591;51.446;5.404;2023-02-20T03:18:05;17.43;;;12.83;;
13048;SDS011;6591;51.446;5.404;2023-02-20T03:21:04;19.73;;;12.23;;
13048;SDS011;6591;51.446;5.404;2023-02-20T03:23:52;22.20;;;12.77;;
13048;SDS011;6591;51.446;5.404;2023-02-20T03:26:30;16.27;;;11.77;;
13048;SDS011;6591;51.446;5.404;2023-02-20T03:29:06;20.60;;;12.83;;
13048;SDS011;6591;51.446;5.404;2023-02-20T03:31:52;20.90;;;13.23;;
13048;SDS011;6591;51.446;5.404;2023-02-20T03:34:44;17.30;;;13.53;;
13048;SDS011;6591;51.446;5.404;2023-02-20T03:37:34;18.37;;;13.27;;
13048;SDS011;6591;51.446;5.404;2023-02-20T03:40:23;16.50;;;11.63;;
13048;SDS011;6591;51.446;5.404;2023-02-20T03:43:12;20.27;;;12.43;;
13048;SDS011;6591;51.446;5.404;2023-02-20T03:46:02;17.93;;;11.93;;
13048;SDS011;6591;51.446;5.404;2023-02-20T03:48:45;16.33;;;11.77;;
13048;SDS011;6591;51.446;5.404;2023-02-20T03:51:22;17.20;;;12.03;;
13048;SDS011;6591;51.446;5.404;2023-02-20T03:53:57;18.57;;;12.00;;
13048;SDS011;6591;51.446;5.404;2023-02-20T03:56:28;16.27;;;11.63;;
13048;SDS011;6591;51.446;5.404;2023-02-20T03:59:14;17.40;;;12.37;;
13048;SDS011;6591;51.446;5.404;2023-02-20T04:01:54;19.50;;;11.70;;
13048;SDS011;6591;51.446;5.404;2023-02-20T04:04:27;16.37;;;12.13;;
13048;SDS011;6591;51.446;5.404;2023-02-20T04:07:05;15.87;;;11.10;;
13048;SDS011;6591;51.446;5.404;2023-02-20T04:09:49;15.43;;;11.87;;
13048;SDS011;6591;51.446;5.404;2023-02-20T04:12:23;16.47;;;11.37;;
13048;SDS011;6591;51.446;5.404;2023-02-20T04:14:57;16.60;;;11.00;;
13048;SDS011;6591;51.446;5.404;2023-02-20T04:17:29;15.33;;;11.53;;
13048;SDS011;6591;51.446;5.404;2023-02-20T04:20:03;14.10;;;11.13;;
13048;SDS011;6591;51.446;5.404;2023-02-20T04:22:37;13.80;;;10.23;;
13048;SDS011;6591;51.446;5.404;2023-02-20T04:28:13;14.13;;;10.43;;
13048;SDS011;6591;51.446;5.404;2023-02-20T04:31:03;16.83;;;11.77;;
13048;SDS011;6591;51.446;5.404;2023-02-20T04:33:32;15.93;;;10.90;;
13048;SDS011;6591;51.446;5.404;2023-02-20T04:36:05;14.80;;;10.27;;
13048;SDS011;6591;51.446;5.404;2023-02-20T04:38:33;13.03;;;9.60;;
13048;SDS011;6591;51.446;5.404;2023-02-20T04:41:04;15.47;;;10.07;;
13048;SDS011;6591;51.446;5.404;2023-02-20T04:43:31;16.13;;;10.17;;
13048;SDS011;6591;51.446;5.404;2023-02-20T04:45:59;13.53;;;9.37;;
13048;SDS011;6591;51.446;5.404;2023-02-20T04:48:27;14.57;;;10.23;;
13048;SDS011;6591;51.446;5.404;2023-02-20T04:50:54;12.00;;;8.40;;
13048;SDS011;6591;51.446;5.404;2023-02-20T04:53:23;13.27;;;9.30;;
13048;SDS011;6591;51.446;5.404;2023-02-20T04:55:50;16.90;;;9.10;;
13048;SDS011;6591;51.446;5.404;2023-02-20T04:58:20;15.40;;;9.10;;
13048;SDS011;6591;51.446;5.404;2023-02-20T05:00:58;15.47;;;9.43;;
13048;SDS011;6591;51.446;5.404;2023-02-20T05:03:26;13.57;;;9.10;;
13048;SDS011;6591;51.446;5.404;2023-02-20T05:05:54;12.07;;;9.47;;
13048;SDS011;6591;51.446;5.404;2023-02-20T05:08:23;13.13;;;8.73;;
13048;SDS011;6591;51.446;5.404;2023-02-20T05:10:49;15.97;;;9.40;;
13048;SDS011;6591;51.446;5.404;2023-02-20T05:13:17;13.87;;;9.13;;
13048;SDS011;6591;51.446;5.404;2023-02-20T05:15:43;13.63;;;10.20;;
13048;SDS011;6591;51.446;5.404;2023-02-20T05:18:10;13.97;;;9.77;;
13048;SDS011;6591;51.446;5.404;2023-02-20T05:20:38;14.00;;;9.20;;
13048;SDS011;6591;51.446;5.404;2023-02-20T05:23:23;14.43;;;9.33;;
13048;SDS011;6591;51.446;5.404;2023-02-20T05:25:51;15.03;;;9.37;;
13048;SDS011;6591;51.446;5.404;2023-02-20T05:28:19;15.83;;;9.63;;
13048;SDS011;6591;51.446;5.404;2023-02-20T05:30:48;15.73;;;9.87;;
13048;SDS011;6591;51.446;5.404;2023-02-20T05:33:15;13.60;;;10.13;;
13048;SDS011;6591;51.446;5.404;2023-02-20T05:35:42;17.07;;;10.50;;
13048;SDS011;6591;51.446;5.404;2023-02-20T05:38:15;11.57;;;9.03;;
13048;SDS011;6591;51.446;5.404;2023-02-20T05:40:43;12.13;;;8.90;;
13048;SDS011;6591;51.446;5.404;2023-02-20T05:43:11;13.93;;;9.47;;
13048;SDS011;6591;51.446;5.404;2023-02-20T05:45:38;15.80;;;9.53;;
13048;SDS011;6591;51.446;5.404;2023-02-20T05:48:05;15.60;;;10.13;;
13048;SDS011;6591;51.446;5.404;2023-02-20T05:50:32;17.43;;;10.27;;
13048;SDS011;6591;51.446;5.404;2023-02-20T05:52:59;16.10;;;10.73;;
13048;SDS011;6591;51.446;5.404;2023-02-20T05:55:26;15.50;;;9.77;;
13048;SDS011;6591;51.446;5.404;2023-02-20T05:57:53;14.17;;;9.23;;
13048;SDS011;6591;51.446;5.404;2023-02-20T06:00:21;13.47;;;9.30;;
13048;SDS011;6591;51.446;5.404;2023-02-20T06:02:49;13.93;;;9.17;;
13048;SDS011;6591;51.446;5.404;2023-02-20T06:05:16;15.23;;;9.67;;
13048;SDS011;6591;51.446;5.404;2023-02-20T06:07:46;18.87;;;10.90;;
13048;SDS011;6591;51.446;5.404;2023-02-20T06:10:14;17.77;;;10.53;;
13048;SDS011;6591;51.446;5.404;2023-02-20T06:12:44;14.07;;;10.33;;
13048;SDS011;6591;51.446;5.404;2023-02-20T06:15:11;16.63;;;10.73;;
13048;SDS011;6591;51.446;5.404;2023-02-20T06:17:39;14.27;;;10.73;;
13048;SDS011;6591;51.446;5.404;2023-02-20T06:20:10;16.90;;;10.47;;
13048;SDS011;6591;51.446;5.404;2023-02-20T06:22:37;17.20;;;10.60;;
13048;SDS011;6591;51.446;5.404;2023-02-20T06:25:05;17.87;;;11.37;;
13048;SDS011;6591;51.446;5.404;2023-02-20T06:27:32;17.77;;;11.50;;
13048;SDS011;6591;51.446;5.404;2023-02-20T06:29:59;17.97;;;11.03;;
13048;SDS011;6591;51.446;5.404;2023-02-20T06:32:27;13.93;;;10.33;;
13048;SDS011;6591;51.446;5.404;2023-02-20T06:34:54;14.60;;;9.70;;
13048;SDS011;6591;51.446;5.404;2023-02-20T06:37:22;15.57;;;10.37;;
13048;SDS011;6591;51.446;5.404;2023-02-20T06:39:49;14.50;;;10.17;;
13048;SDS011;6591;51.446;5.404;2023-02-20T06:42:16;18.43;;;11.87;;
13048;SDS011;6591;51.446;5.404;2023-02-20T06:44:43;14.53;;;10.50;;
13048;SDS011;6591;51.446;5.404;2023-02-20T06:47:10;13.40;;;10.63;;
13048;SDS011;6591;51.446;5.404;2023-02-20T06:49:37;15.20;;;10.33;;
13048;SDS011;6591;51.446;5.404;2023-02-20T06:52:07;14.73;;;10.87;;
13048;SDS011;6591;51.446;5.404;2023-02-20T06:54:35;17.70;;;10.93;;
13048;SDS011;6591;51.446;5.404;2023-02-20T06:57:02;18.60;;;11.30;;
13048;SDS011;6591;51.446;5.404;2023-02-20T06:59:30;17.87;;;10.67;;
13048;SDS011;6591;51.446;5.404;2023-02-20T07:01:58;14.77;;;11.00;;
13048;SDS011;6591;51.446;5.404;2023-02-20T07:04:25;16.40;;;11.20;;
13048;SDS011;6591;51.446;5.404;2023-02-20T07:06:53;15.43;;;9.93;;
13048;SDS011;6591;51.446;5.404;2023-02-20T07:09:21;14.87;;;10.17;;
13048;SDS011;6591;51.446;5.404;2023-02-20T07:11:51;17.07;;;9.90;;
13048;SDS011;6591;51.446;5.404;2023-02-20T07:14:18;12.83;;;9.73;;
13048;SDS011;6591;51.446;5.404;2023-02-20T07:16:46;17.67;;;10.83;;
13048;SDS011;6591;51.446;5.404;2023-02-20T07:19:13;16.20;;;10.13;;
13048;SDS011;6591;51.446;5.404;2023-02-20T07:21:40;17.00;;;10.63;;
13048;SDS011;6591;51.446;5.404;2023-02-20T07:24:07;15.47;;;11.43;;
13048;SDS011;6591;51.446;5.404;2023-02-20T07:26:35;15.23;;;10.80;;
13048;SDS011;6591;51.446;5.404;2023-02-20T07:29:04;18.97;;;12.33;;
13048;SDS011;6591;51.446;5.404;2023-02-20T07:31:32;17.23;;;12.57;;
13048;SDS011;6591;51.446;5.404;2023-02-20T07:34:01;16.23;;;11.90;;
13048;SDS011;6591;51.446;5.404;2023-02-20T07:36:33;16.53;;;11.93;;
13048;SDS011;6591;51.446;5.404;2023-02-20T07:39:02;20.07;;;12.80;;
13048;SDS011;6591;51.446;5.404;2023-02-20T07:41:32;18.73;;;12.80;;
13048;SDS011;6591;51.446;5.404;2023-02-20T07:44:04;19.50;;;13.67;;
13048;SDS011;6591;51.446;5.404;2023-02-20T07:46:31;26.93;;;16.20;;
13048;SDS011;6591;51.446;5.404;2023-02-20T07:49:03;20.23;;;14.13;;
13048;SDS011;6591;51.446;5.404;2023-02-20T07:51:31;18.50;;;13.10;;
13048;SDS011;6591;51.446;5.404;2023-02-20T07:53:58;16.00;;;12.33;;
13048;SDS011;6591;51.446;5.404;2023-02-20T07:56:26;18.60;;;13.03;;
13048;SDS011;6591;51.446;5.404;2023-02-20T07:58:53;18.93;;;12.30;;
13048;SDS011;6591;51.446;5.404;2023-02-20T08:01:20;14.97;;;11.03;;
13048;SDS011;6591;51.446;5.404;2023-02-20T08:03:49;17.87;;;11.77;;
13048;SDS011;6591;51.446;5.404;2023-02-20T08:06:17;14.93;;;11.40;;
13048;SDS011;6591;51.446;5.404;2023-02-20T08:08:46;15.70;;;11.13;;
13048;SDS011;6591;51.446;5.404;2023-02-20T08:11:20;16.57;;;11.47;;
13048;SDS011;6591;51.446;5.404;2023-02-20T08:13:49;13.50;;;10.33;;
13048;SDS011;6591;51.446;5.404;2023-02-20T08:16:16;15.03;;;10.53;;
13048;SDS011;6591;51.446;5.404;2023-02-20T08:18:43;14.30;;;11.43;;
13048;SDS011;6591;51.446;5.404;2023-02-20T08:21:11;15.13;;;11.63;;
13048;SDS011;6591;51.446;5.404;2023-02-20T08:23:38;18.83;;;11.67;;
13048;SDS011;6591;51.446;5.404;2023-02-20T08:26:05;17.87;;;11.43;;
13048;SDS011;6591;51.446;5.404;2023-02-20T08:28:32;14.53;;;10.40;;
13048;SDS011;6591;51.446;5.404;2023-02-20T08:30:59;17.20;;;10.83;;
13048;SDS011;6591;51.446;5.404;2023-02-20T08:33:26;13.37;;;10.70;;
13048;SDS011;6591;51.446;5.404;2023-02-20T08:35:53;15.53;;;10.90;;
13048;SDS011;6591;51.446;5.404;2023-02-20T08:38:30;19.03;;;11.50;;
13048;SDS011;6591;51.446;5.404;2023-02-20T08:41:07;18.03;;;10.60;;
13048;SDS011;6591;51.446;5.404;2023-02-20T08:43:37;16.07;;;10.60;;
13048;SDS011;6591;51.446;5.404;2023-02-20T08:46:06;16.90;;;10.20;;
13048;SDS011;6591;51.446;5.404;2023-02-20T08:48:33;15.00;;;10.20;;
13048;SDS011;6591;51.446;5.404;2023-02-20T08:51:02;17.17;;;10.63;;
13048;SDS011;6591;51.446;5.404;2023-02-20T08:53:30;15.70;;;10.67;;
13048;SDS011;6591;51.446;5.404;2023-02-20T08:55:58;18.63;;;10.60;;
13048;SDS011;6591;51.446;5.404;2023-02-20T08:58:25;14.67;;;9.80;;
13048;SDS011;6591;51.446;5.404;2023-02-20T09:00:53;13.10;;;9.57;;
13048;SDS011;6591;51.446;5.404;2023-02-20T09:03:20;17.60;;;11.70;;
13048;SDS011;6591;51.446;5.404;2023-02-20T09:05:48;15.03;;;10.93;;
13048;SDS011;6591;51.446;5.404;2023-02-20T09:08:15;17.37;;;10.53;;
13048;SDS011;6591;51.446;5.404;2023-02-20T09:10:43;13.97;;;10.53;;
13048;SDS011;6591;51.446;5.404;2023-02-20T09:13:10;19.93;;;11.00;;
13048;SDS011;6591;51.446;5.404;2023-02-20T09:15:38;17.17;;;10.97;;
13048;SDS011;6591;51.446;5.404;2023-02-20T09:18:06;17.27;;;10.97;;
13048;SDS011;6591;51.446;5.404;2023-02-20T09:20:37;16.23;;;10.23;;
13048;SDS011;6591;51.446;5.404;2023-02-20T09:23:06;16.17;;;11.67;;
13048;SDS011;6591;51.446;5.404;2023-02-20T09:25:37;14.53;;;10.10;;
13048;SDS011;6591;51.446;5.404;2023-02-20T09:28:05;18.03;;;11.20;;
13048;SDS011;6591;51.446;5.404;2023-02-20T09:30:34;16.57;;;11.07;;
13048;SDS011;6591;51.446;5.404;2023-02-20T09:33:04;13.60;;;10.47;;
13048;SDS011;6591;51.446;5.404;2023-02-20T09:35:31;14.23;;;10.60;;
13048;SDS011;6591;51.446;5.404;2023-02-20T09:37:59;13.83;;;10.60;;
13048;SDS011;6591;51.446;5.404;2023-02-20T09:40:29;12.87;;;9.90;;
13048;SDS011;6591;51.446;5.404;2023-02-20T09:48:57;17.30;;;12.07;;
13048;SDS011;6591;51.446;5.404;2023-02-20T09:51:33;13.00;;;9.63;;
13048;SDS011;6591;51.446;5.404;2023-02-20T09:54:10;15.83;;;10.27;;
13048;SDS011;6591;51.446;5.404;2023-02-20T09:56:48;18.00;;;10.63;;
13048;SDS011;6591;51.446;5.404;2023-02-20T09:59:23;16.40;;;9.77;;
13048;SDS011;6591;51.446;5.404;2023-02-20T10:02:11;12.60;;;9.30;;
13048;SDS011;6591;51.446;5.404;2023-02-20T10:04:49;10.93;;;8.60;;
13048;SDS011;6591;51.446;5.404;2023-02-20T10:09:56;12.60;;;8.60;;
13048;SDS011;6591;51.446;5.404;2023-02-20T10:12:31;13.60;;;9.83;;
13048;SDS011;6591;51.446;5.404;2023-02-20T10:15:18;16.13;;;9.20;;
13048;SDS011;6591;51.446;5.404;2023-02-20T10:21:27;16.83;;;9.70;;
13048;SDS011;6591;51.446;5.404;2023-02-20T10:24:41;15.63;;;9.30;;
13048;SDS011;6591;51.446;5.404;2023-02-20T10:39:06;15.57;;;11.17;;
13048;SDS011;6591;51.446;5.404;2023-02-20T10:41:51;13.90;;;10.17;;
13048;SDS011;6591;51.446;5.404;2023-02-20T10:44:38;19.70;;;11.53;;
13048;SDS011;6591;51.446;5.404;2023-02-20T10:50:09;14.97;;;9.93;;
13048;SDS011;6591;51.446;5.404;2023-02-20T10:52:47;16.50;;;10.57;;
13048;SDS011;6591;51.446;5.404;2023-02-20T10:55:44;17.23;;;11.50;;
13048;SDS011;6591;51.446;5.404;2023-02-20T10:58:31;15.90;;;10.27;;
13048;SDS011;6591;51.446;5.404;2023-02-20T11:01:05;18.17;;;10.90;;
13048;SDS011;6591;51.446;5.404;2023-02-20T11:06:22;16.60;;;11.07;;
13048;SDS011;6591;51.446;5.404;2023-02-20T11:08:57;15.63;;;10.40;;
13048;SDS011;6591;51.446;5.404;2023-02-20T11:14:14;15.60;;;10.77;;
13048;SDS011;6591;51.446;5.404;2023-02-20T11:17:09;13.97;;;10.83;;
13048;SDS011;6591;51.446;5.404;2023-02-20T11:19:51;19.87;;;11.53;;
13048;SDS011;6591;51.446;5.404;2023-02-20T11:22:43;16.77;;;11.97;;
13048;SDS011;6591;51.446;5.404;2023-02-20T11:25:19;16.93;;;12.10;;
13048;SDS011;6591;51.446;5.404;2023-02-20T11:27:57;18.27;;;13.27;;
13048;SDS011;6591;51.446;5.404;2023-02-20T11:30:40;18.40;;;11.87;;
13048;SDS011;6591;51.446;5.404;2023-02-20T11:33:23;16.10;;;12.47;;
13048;SDS011;6591;51.446;5.404;2023-02-20T11:35:56;19.83;;;11.73;;
13048;SDS011;6591;51.446;5.404;2023-02-20T11:38:45;17.43;;;12.20;;
13048;SDS011;6591;51.446;5.404;2023-02-20T11:47:08;20.33;;;13.27;;
13048;SDS011;6591;51.446;5.404;2023-02-20T11:49:36;17.63;;;13.57;;
13048;SDS011;6591;51.446;5.404;2023-02-20T11:52:08;17.90;;;13.13;;
13048;SDS011;6591;51.446;5.404;2023-02-20T11:55:09;18.37;;;14.00;;
13048;SDS011;6591;51.446;5.404;2023-02-20T11:57:49;21.37;;;14.30;;
13048;SDS011;6591;51.446;5.404;2023-02-20T12:00:24;20.37;;;14.03;;
13048;SDS011;6591;51.446;5.404;2023-02-20T12:03:03;18.83;;;13.77;;
13048;SDS011;6591;51.446;5.404;2023-02-20T12:05:55;19.93;;;13.70;;
13048;SDS011;6591;51.446;5.404;2023-02-20T12:08:33;20.17;;;13.97;;
13048;SDS011;6591;51.446;5.404;2023-02-20T12:11:18;23.43;;;14.97;;
13048;SDS011;6591;51.446;5.404;2023-02-20T12:13:50;18.73;;;13.93;;
13048;SDS011;6591;51.446;5.404;2023-02-20T12:18:58;23.07;;;17.47;;
13048;SDS011;6591;51.446;5.404;2023-02-20T12:21:45;21.97;;;15.03;;
13048;SDS011;6591;51.446;5.404;2023-02-20T12:30:54;20.07;;;14.30;;
13048;SDS011;6591;51.446;5.404;2023-02-20T12:33:43;20.07;;;13.87;;
13048;SDS011;6591;51.446;5.404;2023-02-20T12:39:44;21.87;;;14.43;;
13048;SDS011;6591;51.446;5.404;2023-02-20T12:42:37;19.73;;;12.87;;
13048;SDS011;6591;51.446;5.404;2023-02-20T12:45:15;17.13;;;13.20;;
13048;SDS011;6591;51.446;5.404;2023-02-20T12:47:58;20.43;;;14.03;;
13048;SDS011;6591;51.446;5.404;2023-02-20T12:51:58;17.17;;;13.77;;
13048;SDS011;6591;51.446;5.404;2023-02-20T12:54:14;14.77;;;13.03;;
13048;SDS011;6591;51.446;5.404;2023-02-20T12:57:02;17.97;;;13.93;;
13048;SDS011;6591;51.446;5.404;2023-02-20T12:59:44;21.23;;;15.77;;
13048;SDS011;6591;51.446;5.404;2023-02-20T13:02:34;22.63;;;15.23;;
13048;SDS011;6591;51.446;5.404;2023-02-20T13:05:10;17.23;;;13.40;;
13048;SDS011;6591;51.446;5.404;2023-02-20T13:07:51;15.73;;;12.43;;
13048;SDS011;6591;51.446;5.404;2023-02-20T13:10:38;17.77;;;12.73;;
13048;SDS011;6591;51.446;5.404;2023-02-20T13:17:11;14.37;;;11.77;;
13048;SDS011;6591;51.446;5.404;2023-02-20T13:20:27;17.03;;;11.70;;
13048;SDS011;6591;51.446;5.404;2023-02-20T13:25:44;13.23;;;10.97;;
13048;SDS011;6591;51.446;5.404;2023-02-20T13:33:42;13.57;;;10.47;;
13048;SDS011;6591;51.446;5.404;2023-02-20T13:36:38;15.77;;;11.07;;
13048;SDS011;6591;51.446;5.404;2023-02-20T13:42:26;14.87;;;11.83;;
13048;SDS011;6591;51.446;5.404;2023-02-20T13:45:02;14.13;;;10.80;;
13048;SDS011;6591;51.446;5.404;2023-02-20T13:48:19;14.27;;;11.70;;
13048;SDS011;6591;51.446;5.404;2023-02-20T13:53:48;15.30;;;11.13;;
13048;SDS011;6591;51.446;5.404;2023-02-20T13:59:25;17.63;;;11.20;;
13048;SDS011;6591;51.446;5.404;2023-02-20T14:02:01;15.77;;;11.57;;
13048;SDS011;6591;51.446;5.404;2023-02-20T14:04:37;14.70;;;10.63;;
13048;SDS011;6591;51.446;5.404;2023-02-20T14:07:04;16.37;;;11.50;;
13048;SDS011;6591;51.446;5.404;2023-02-20T14:09:31;17.67;;;11.53;;
13048;SDS011;6591;51.446;5.404;2023-02-20T14:12:03;14.97;;;10.83;;
13048;SDS011;6591;51.446;5.404;2023-02-20T14:14:38;14.77;;;11.20;;
13048;SDS011;6591;51.446;5.404;2023-02-20T14:17:17;16.00;;;10.57;;
13048;SDS011;6591;51.446;5.404;2023-02-20T14:19:55;13.77;;;11.07;;
13048;SDS011;6591;51.446;5.404;2023-02-20T14:22:40;13.83;;;10.13;;
13048;SDS011;6591;51.446;5.404;2023-02-20T14:27:39;19.03;;;11.93;;
13048;SDS011;6591;51.446;5.404;2023-02-20T14:32:50;14.43;;;10.90;;
13048;SDS011;6591;51.446;5.404;2023-02-20T14:38:12;13.07;;;10.50;;
13048;SDS011;6591;51.446;5.404;2023-02-20T14:41:17;11.33;;;9.83;;
13048;SDS011;6591;51.446;5.404;2023-02-20T14:43:54;17.03;;;11.27;;
13048;SDS011;6591;51.446;5.404;2023-02-20T14:46:32;14.57;;;10.93;;
13048;SDS011;6591;51.446;5.404;2023-02-20T14:49:09;14.37;;;10.90;;
13048;SDS011;6591;51.446;5.404;2023-02-20T14:51:40;15.33;;;11.77;;
13048;SDS011;6591;51.446;5.404;2023-02-20T14:56:45;16.00;;;11.93;;
13048;SDS011;6591;51.446;5.404;2023-02-20T14:59:14;16.10;;;13.53;;
13048;SDS011;6591;51.446;5.404;2023-02-20T15:01:55;17.30;;;12.20;;
13048;SDS011;6591;51.446;5.404;2023-02-20T15:04:27;14.07;;;11.57;;
13048;SDS011;6591;51.446;5.404;2023-02-20T15:06:59;15.97;;;12.70;;
13048;SDS011;6591;51.446;5.404;2023-02-20T15:09:38;15.30;;;13.40;;
13048;SDS011;6591;51.446;5.404;2023-02-20T15:12:20;16.07;;;14.37;;
13048;SDS011;6591;51.446;5.404;2023-02-20T15:15:01;14.73;;;13.07;;
13048;SDS011;6591;51.446;5.404;2023-02-20T15:17:41;15.73;;;13.30;;
13048;SDS011;6591;51.446;5.404;2023-02-20T15:20:19;16.03;;;14.33;;
13048;SDS011;6591;51.446;5.404;2023-02-20T15:23:07;16.60;;;14.90;;
13048;SDS011;6591;51.446;5.404;2023-02-20T15:25:50;20.23;;;15.77;;
13048;SDS011;6591;51.446;5.404;2023-02-20T15:33:38;21.30;;;17.17;;
13048;SDS011;6591;51.446;5.404;2023-02-20T15:36:13;22.40;;;17.53;;
13048;SDS011;6591;51.446;5.404;2023-02-20T15:38:44;20.77;;;17.90;;
13048;SDS011;6591;51.446;5.404;2023-02-20T15:41:12;20.43;;;17.10;;
13048;SDS011;6591;51.446;5.404;2023-02-20T15:43:40;20.20;;;17.50;;
13048;SDS011;6591;51.446;5.404;2023-02-20T15:46:17;20.30;;;17.33;;
13048;SDS011;6591;51.446;5.404;2023-02-20T15:48:45;23.10;;;18.53;;
13048;SDS011;6591;51.446;5.404;2023-02-20T15:51:17;21.97;;;17.33;;
13048;SDS011;6591;51.446;5.404;2023-02-20T15:53:50;21.03;;;17.93;;
13048;SDS011;6591;51.446;5.404;2023-02-20T15:56:19;24.37;;;19.33;;
13048;SDS011;6591;51.446;5.404;2023-02-20T15:58:46;21.73;;;18.33;;
13048;SDS011;6591;51.446;5.404;2023-02-20T16:01:15;20.60;;;17.50;;
13048;SDS011;6591;51.446;5.404;2023-02-20T16:03:43;22.10;;;18.33;;
13048;SDS011;6591;51.446;5.404;2023-02-20T16:06:21;21.00;;;18.07;;
13048;SDS011;6591;51.446;5.404;2023-02-20T16:08:49;20.03;;;17.07;;
13048;SDS011;6591;51.446;5.404;2023-02-20T16:11:19;21.10;;;16.43;;
13048;SDS011;6591;51.446;5.404;2023-02-20T16:13:57;20.83;;;17.30;;
13048;SDS011;6591;51.446;5.404;2023-02-20T16:19:09;21.47;;;16.30;;
13048;SDS011;6591;51.446;5.404;2023-02-20T16:21:53;20.47;;;14.60;;
13048;SDS011;6591;51.446;5.404;2023-02-20T16:24:25;20.47;;;14.63;;
13048;SDS011;6591;51.446;5.404;2023-02-20T16:26:52;17.57;;;14.97;;
13048;SDS011;6591;51.446;5.404;2023-02-20T16:29:23;19.77;;;15.00;;
13048;SDS011;6591;51.446;5.404;2023-02-20T16:34:29;16.87;;;13.97;;
13048;SDS011;6591;51.446;5.404;2023-02-20T16:36:59;19.97;;;14.40;;
13048;SDS011;6591;51.446;5.404;2023-02-20T16:39:28;15.07;;;12.77;;
13048;SDS011;6591;51.446;5.404;2023-02-20T16:41:57;15.00;;;12.30;;
13048;SDS011;6591;51.446;5.404;2023-02-20T16:47:10;14.87;;;10.93;;
13048;SDS011;6591;51.446;5.404;2023-02-20T16:49:43;12.63;;;11.33;;
13048;SDS011;6591;51.446;5.404;2023-02-20T16:52:15;15.03;;;11.97;;
13048;SDS011;6591;51.446;5.404;2023-02-20T16:54:52;13.93;;;12.23;;
13048;SDS011;6591;51.446;5.404;2023-02-20T16:57:22;14.47;;;11.80;;
13048;SDS011;6591;51.446;5.404;2023-02-20T16:59:53;13.40;;;12.00;;
13048;SDS011;6591;51.446;5.404;2023-02-20T17:02:25;14.73;;;11.23;;
13048;SDS011;6591;51.446;5.404;2023-02-20T17:04:57;12.50;;;11.03;;
13048;SDS011;6591;51.446;5.404;2023-02-20T17:07:25;12.77;;;11.37;;
13048;SDS011;6591;51.446;5.404;2023-02-20T17:09:53;12.63;;;11.33;;
13048;SDS011;6591;51.446;5.404;2023-02-20T17:12:20;12.63;;;10.80;;
13048;SDS011;6591;51.446;5.404;2023-02-20T17:14:49;13.23;;;11.07;;
13048;SDS011;6591;51.446;5.404;2023-02-20T17:17:19;13.37;;;11.70;;
13048;SDS011;6591;51.446;5.404;2023-02-20T17:19:47;13.33;;;10.47;;
13048;SDS011;6591;51.446;5.404;2023-02-20T17:22:18;13.23;;;10.73;;